Time;durP1;ratioP1;P1;durP2;ratioP2;P2;SDS_P1;SDS_P2;PMS_P1;PMS_P2;Temp;Humidity;BMP_temperature;BMP_pressure;BME280_temperature;BME280_humidity;BME280_pressure;Samples;Min_cycle;Max_cycle;Signal;HPM_P1;HPM_P2
2022/11/27 12:14:57;;;;;;;38.53;35.92;;;;;;;12.08;71.29;102217.00;4997931;28;102714;-55
2022/11/27 12:17:40;;;;;;;24.95;23.13;;;;;;;12.08;71.43;102214.28;4978128;28;102165;-55
2022/11/27 12:20:22;;;;;;;23.77;21.88;;;;;;;12.10;71.22;102225.75;4979115;28;104014;-54
2022/11/27 12:23:27;;;;;;;20.92;19.33;;;;;;;12.11;71.50;102227.41;4982224;28;105444;-54
2022/11/27 12:26:03;;;;;;;23.23;21.45;;;;;;;12.14;71.19;102237.00;4996847;27;102167;-54
2022/11/27 12:28:59;;;;;;;26.15;24.25;;;;;;;12.13;71.14;102243.53;5001070;28;102266;-55
2022/11/27 12:31:43;;;;;;;23.25;21.45;;;;;;;12.14;71.25;102232.38;4975895;28;104029;-54
2022/11/27 12:34:18;;;;;;;27.02;25.15;;;;;;;12.15;71.35;102239.50;4976592;28;102257;-55
2022/11/27 12:37:07;;;;;;;27.02;24.98;;;;;;;12.15;71.19;102244.97;4977947;28;103578;-55
2022/11/27 12:39:46;;;;;;;27.38;25.48;;;;;;;12.13;71.48;102233.44;4969654;28;102260;-54
2022/11/27 12:42:16;;;;;;;;;;;;;;;12.15;71.21;102242.25;4981886;28;106258;-55
2022/11/27 12:44:54;;;;;;;25.55;23.73;;;;;;;12.17;71.08;102239.25;4980605;28;102173;-55
2022/11/27 12:47:26;;;;;;;28.98;27.02;;;;;;;12.18;71.19;102244.44;4985302;28;102376;-54
2022/11/27 12:49:56;;;;;;;30.63;28.50;;;;;;;12.16;71.05;102251.25;4975344;28;102313;-54
2022/11/27 12:52:28;;;;;;;37.15;34.63;;;;;;;12.15;70.96;102255.88;4986555;28;104170;-54
2022/11/27 12:54:59;;;;;;;37.53;35.17;;;;;;;12.14;71.24;102254.19;4982537;28;103562;-54
2022/11/27 12:57:35;;;;;;;37.55;35.20;;;;;;;12.18;71.04;102254.53;5000203;28;102460;-54
2022/11/27 13:00:04;;;;;;;41.25;38.78;;;;;;;12.16;71.14;102254.81;5004443;28;102803;-53
2022/11/27 13:02:37;;;;;;;41.70;39.10;;;;;;;12.17;71.38;102248.25;4981842;28;103950;-55
2022/11/27 13:05:08;;;;;;;44.42;41.75;;;;;;;12.18;71.19;102251.81;4996936;28;102358;-55
2022/11/27 13:07:42;;;;;;;42.25;39.65;;;;;;;12.16;71.12;102251.25;5005091;28;102900;-54
2022/11/27 13:10:21;;;;;;;46.38;43.53;;;;;;;12.15;71.27;102255.88;5002436;28;102322;-55
2022/11/27 13:12:56;;;;;;;52.80;49.63;;;;;;;12.17;71.24;102253.72;4980188;28;108145;-55
2022/11/27 13:15:28;;;;;;;49.45;46.45;;;;;;;12.17;71.14;102253.72;4971563;28;102769;-54
2022/11/27 13:18:12;;;;;;;53.08;49.90;;;;;;;12.16;71.22;102252.06;4958784;28;102205;-55
2022/11/27 13:20:40;;;;;;;53.85;50.65;;;;;;;12.14;71.16;102254.19;4959930;28;102157;-54
2022/11/27 13:23:07;;;;;;;50.28;47.17;;;;;;;12.14;nan;102259.66;4971428;28;104170;-54
2022/11/27 13:25:41;;;;;;;55.95;52.75;;;;;;;12.16;71.14;102256.72;4970694;28;102390;-55
2022/11/27 13:28:19;;;;;;;59.90;56.38;;;;;;;12.15;71.22;102255.88;4967961;28;102420;-55
2022/11/27 13:30:47;;;;;;;58.17;54.63;;;;;;;12.15;71.11;102266.81;4970236;28;102501;-55
2022/11/27 13:33:29;;;;;;;56.08;52.75;;;;;;;12.15;70.83;102255.88;4966246;28;104077;-54
2022/11/27 13:35:56;;;;;;;57.90;54.60;;;;;;;12.15;71.31;102261.34;4965325;28;102043;-54
2022/11/27 13:38:25;;;;;;;63.25;59.53;;;;;;;12.16;71.06;102267.63;4966264;28;102410;-54
2022/11/27 15:11:32;;;;;;;72.85;68.60;;;;;;;11.95;70.85;102271.84;4995781;28;102137;-55
2022/11/27 15:14:00;;;;;;;;;;;;;;;11.96;70.70;102276.22;4986705;28;104457;-55
2022/11/27 15:16:29;;;;;;;;;;;;;;;11.98;70.56;102274.09;4980695;28;104023;-55
2022/11/27 15:18:59;;;;;;;27.42;25.52;;;;;;;11.98;70.47;102274.09;4978191;28;104019;-55
2022/11/27 15:21:26;;;;;;;39.08;36.60;;;;;;;11.98;70.57;102280.38;4973539;28;102110;-55
2022/11/27 15:23:54;;;;;;;41.60;38.88;;;;;;;11.99;70.65;102278.47;4976502;28;102722;-55
2022/11/27 15:26:33;;;;;;;46.13;43.28;;;;;;;12.00;70.50;102274.66;4983737;28;104000;-55
2022/11/27 15:29:00;;;;;;;43.70;40.73;;;;;;;12.00;70.60;102274.66;4992666;28;102021;-55
2022/11/27 15:31:31;;;;;;;48.17;45.17;;;;;;;12.00;70.27;102271.94;4988579;28;102858;-55
2022/11/27 15:34:01;;;;;;;52.95;49.63;;;;;;;11.99;70.47;102278.47;4982580;28;102471;-55
2022/11/27 15:36:36;;;;;;;55.92;52.58;;;;;;;12.00;70.35;102274.66;4970399;28;104114;-55
2022/11/27 15:39:09;;;;;;;54.88;51.50;;;;;;;11.99;70.88;102273.84;4988308;27;102039;-55
2022/11/27 15:41:48;;;;;;;52.95;49.72;;;;;;;12.02;70.51;102272.53;4980263;28;102846;-55
2022/11/27 15:44:14;;;;;;;59.30;55.83;;;;;;;12.01;70.39;102276.34;4987277;28;102192;-55
2022/11/27 15:46:41;;;;;;;62.22;58.63;;;;;;;12.05;70.24;102282.97;4989098;28;103852;-55
2022/11/27 15:49:12;;;;;;;69.70;65.50;;;;;;;12.03;70.38;102275.00;4975702;28;102234;-55
2022/11/27 15:51:38;;;;;;;66.65;62.65;;;;;;;12.04;70.14;102275.84;4976851;28;102705;-55
2022/11/27 16:07:00;;;;;;;117.47;110.60;;;;;;;12.07;70.52;102264.44;4956576;28;102152;-54
2022/11/27 16:09:27;;;;;;;87.90;82.38;;;;;;;12.05;70.55;102266.59;4957530;28;102016;-55
2022/11/27 16:11:54;;;;;;;80.18;75.10;;;;;;;12.04;70.47;102262.19;4953347;28;103656;-55
2022/11/27 16:14:21;;;;;;;78.95;73.70;;;;;;;12.03;70.36;102268.72;4958525;28;102895;-55
2022/11/27 16:16:48;;;;;;;80.05;74.90;;;;;;;12.03;70.25;102268.72;4954889;28;102636;-55
2022/11/27 16:19:15;;;;;;;75.03;70.18;;;;;;;12.04;70.36;102275.84;4956068;28;102323;-54
2022/11/27 16:21:42;;;;;;;72.55;67.97;;;;;;;12.04;70.41;102264.91;4954845;28;104071;-54
2022/11/27 16:24:13;;;;;;;68.68;64.20;;;;;;;12.05;70.50;102273.97;4954783;28;102687;-55
2022/11/27 16:26:40;;;;;;;70.80;66.18;;;;;;;12.03;70.36;102268.72;4956486;28;102321;-55
2022/11/27 16:29:07;;;;;;;70.60;66.13;;;;;;;12.04;70.26;102284.03;4958369;28;102632;-55
2022/11/27 16:31:34;;;;;;;69.35;64.90;;;;;;;12.03;70.28;102287.81;4955776;28;104341;-55
2022/11/27 16:34:02;;;;;;;66.55;62.15;;;;;;;12.03;70.24;102285.09;4956811;28;102446;-54
2022/11/27 16:36:29;;;;;;;66.30;62.03;;;;;;;12.03;70.54;102290.56;4953983;28;102647;-54
2022/11/27 16:38:55;;;;;;;63.95;59.72;;;;;;;12.02;70.22;102283.44;4954861;28;102180;-55
2022/11/27 16:41:24;;;;;;;62.42;58.33;;;;;;;12.02;70.19;102295.19;4955277;28;104501;-54
2022/11/27 16:43:53;;;;;;;61.22;57.35;;;;;;;12.04;70.11;102289.47;4956984;28;102168;-54
2022/11/27 16:46:22;;;;;;;61.47;57.58;;;;;;;12.04;70.17;102297.66;4948946;28;102789;-54
2022/11/27 16:48:49;;;;;;;57.28;53.47;;;;;;;12.02;70.20;102294.38;4950978;28;102570;-55
2022/11/27 16:51:18;;;;;;;59.28;55.55;;;;;;;12.03;70.31;102293.28;4949792;28;103923;-55
2022/11/27 16:53:47;;;;;;;64.93;60.92;;;;;;;12.02;70.30;102295.19;4950904;28;102260;-55
2022/11/27 16:56:16;;;;;;;62.95;59.08;;;;;;;12.04;70.03;102292.22;4949988;28;102954;-55
2022/11/27 16:58:46;;;;;;;64.10;60.17;;;;;;;12.04;69.84;102297.66;4949135;28;102928;-54
2022/11/27 17:01:17;;;;;;;56.92;53.10;;;;;;;12.03;70.20;102304.19;4948214;28;104201;-55
2022/11/27 17:03:44;;;;;;;59.40;55.60;;;;;;;12.03;70.15;102291.38;4951745;28;102671;-55
2022/11/27 17:06:15;;;;;;;53.83;50.33;;;;;;;12.03;70.19;102301.47;4947549;28;103253;-54
2022/11/27 17:08:43;;;;;;;57.35;53.47;;;;;;;12.05;70.05;102293.06;4937647;28;102334;-55
2022/11/27 17:11:11;;;;;;;60.42;56.80;;;;;;;12.05;70.14;102293.88;4937605;28;104174;-55
2022/11/27 17:13:37;;;;;;;57.75;54.33;;;;;;;12.05;70.05;102291.16;4937407;28;102019;-55
2022/11/27 17:16:07;;;;;;;59.80;56.17;;;;;;;12.03;70.16;102291.38;4934907;28;102080;-54
2022/11/27 17:18:35;;;;;;;57.00;53.47;;;;;;;12.05;70.47;102287.59;4940752;28;102078;-54
2022/11/27 17:21:04;;;;;;;61.00;57.38;;;;;;;12.05;70.21;102285.69;4935492;28;104090;-55
2022/11/27 17:23:31;;;;;;;59.83;55.95;;;;;;;12.06;69.89;102290.06;4935698;28;102177;-55
2022/11/27 17:25:57;;;;;;;57.97;54.40;;;;;;;12.06;70.05;102284.63;4933360;28;102558;-54
2022/11/27 17:28:24;;;;;;;54.88;51.58;;;;;;;12.07;70.15;102283.53;4940976;28;102359;-54
2022/11/27 17:30:51;;;;;;;63.17;59.42;;;;;;;12.06;70.03;102281.88;4939000;28;104103;-54
2022/11/27 17:33:19;;;;;;;58.53;55.13;;;;;;;12.07;70.31;102280.00;4939331;28;102707;-54
2022/11/27 17:35:46;;;;;;;59.97;56.50;;;;;;;12.06;70.33;102287.34;4942044;28;102210;-54
2022/11/27 17:38:12;;;;;;;58.83;55.35;;;;;;;12.07;70.41;102286.28;4944505;28;102572;-55
2022/11/27 17:40:39;;;;;;;62.45;58.85;;;;;;;12.07;70.40;102289.00;4943613;28;104036;-54
2022/11/27 17:43:05;;;;;;;58.25;54.70;;;;;;;12.08;70.36;102290.69;4952140;28;102232;-55
2022/11/27 17:45:32;;;;;;;55.72;52.40;;;;;;;12.08;70.25;102293.41;4941632;28;102337;-55
2022/11/27 17:47:59;;;;;;;58.85;55.38;;;;;;;12.08;70.50;102293.41;4949044;28;102463;-55
2022/11/27 17:50:27;;;;;;;57.80;54.42;;;;;;;12.05;70.28;102288.44;4945041;28;104036;-54
2022/11/27 17:52:53;;;;;;;53.38;50.13;;;;;;;12.06;70.49;102290.06;4938361;28;102686;-54
2022/11/27 17:55:20;;;;;;;55.05;51.72;;;;;;;12.05;70.41;102288.44;4941490;28;102390;-55
2022/11/27 17:57:47;;;;;;;55.47;52.17;;;;;;;12.06;70.25;102289.25;4937861;28;102188;-55
2022/11/27 18:00:17;;;;;;;56.78;53.35;;;;;;;12.07;70.39;102285.44;4948241;28;104296;-55
2022/11/27 18:02:43;;;;;;;;;;;;;;;12.05;70.38;102285.69;4955877;28;102199;-54
2022/11/27 18:05:10;;;;;;;39.05;36.60;;;;;;;12.06;70.33;102281.88;4940665;28;102166;-54
2022/11/27 18:07:38;;;;;;;49.90;46.92;;;;;;;12.06;70.28;102278.34;4942348;28;102750;-54
2022/11/27 18:10:06;;;;;;;53.88;50.67;;;;;;;12.05;70.25;102280.25;4943980;28;103922;-55
2022/11/27 18:12:32;;;;;;;51.47;48.45;;;;;;;12.02;70.42;102280.72;4955578;28;102421;-54
2022/11/27 18:14:59;;;;;;;53.28;50.17;;;;;;;12.04;70.38;102275.84;4946447;28;102125;-55
2022/11/27 18:17:26;;;;;;;54.28;50.95;;;;;;;12.05;70.28;102280.25;4943357;28;102951;-56
2022/11/27 18:19:53;;;;;;;55.20;51.97;;;;;;;12.04;70.29;102281.28;4953669;28;103991;-55
2022/11/27 18:22:19;;;;;;;55.13;51.90;;;;;;;12.04;70.24;102284.03;4956397;28;101899;-55
2022/11/27 18:24:47;;;;;;;55.72;52.38;;;;;;;12.05;69.90;102287.59;4954175;28;102142;-55
2022/11/27 18:27:15;;;;;;;58.33;54.95;;;;;;;12.06;70.27;102287.34;4945825;28;102116;-55
2022/11/27 18:29:43;;;;;;;55.65;52.35;;;;;;;12.05;70.17;102293.06;4949704;28;104204;-55
2022/11/27 18:32:10;;;;;;;57.58;54.35;;;;;;;12.03;70.47;102290.56;4946224;28;102162;-55
2022/11/27 18:34:37;;;;;;;56.08;52.88;;;;;;;12.03;70.38;102285.09;4944829;28;102178;-55
2022/11/27 18:37:04;;;;;;;53.75;50.70;;;;;;;12.04;70.47;102281.28;4943520;28;102479;-55
2022/11/27 18:39:31;;;;;;;56.72;53.55;;;;;;;12.05;70.25;102274.78;4947934;28;103984;-55
2022/11/27 18:41:59;;;;;;;57.83;54.58;;;;;;;12.03;70.04;102274.19;4945288;28;101954;-55
2022/11/27 18:44:26;;;;;;;59.33;56.00;;;;;;;12.02;70.47;102262.44;4938096;28;102139;-54
2022/11/27 18:46:53;;;;;;;58.17;54.72;;;;;;;12.03;70.18;102264.09;4955635;28;102465;-55
2022/11/27 18:49:21;;;;;;;55.40;52.25;;;;;;;12.02;70.92;102267.09;4954046;28;104319;-54
2022/11/27 18:51:49;;;;;;;50.70;47.80;;;;;;;12.01;70.04;102259.97;4939435;28;102431;-54
2022/11/27 18:54:16;;;;;;;54.90;51.72;;;;;;;12.00;70.49;102261.84;4955501;28;102510;-55
2022/11/27 18:56:42;;;;;;;54.53;51.40;;;;;;;11.99;70.52;102254.75;4956014;28;102481;-55
2022/11/27 18:59:12;;;;;;;58.72;55.40;;;;;;;11.99;70.52;102251.19;4950184;28;103923;-54
2022/11/27 19:01:39;;;;;;;53.42;50.40;;;;;;;11.98;70.37;102244.09;4939984;28;101898;-55
2022/11/27 19:04:06;;;;;;;51.42;48.55;;;;;;;11.98;70.66;102255.00;4946411;28;102273;-54
2022/11/27 19:06:35;;;;;;;54.20;51.05;;;;;;;11.97;70.50;102250.59;4950739;28;102592;-54
2022/11/27 19:09:02;;;;;;;49.25;46.42;;;;;;;11.97;70.29;102248.72;4939378;28;103956;-54
2022/11/27 19:11:29;;;;;;;47.55;44.80;;;;;;;11.97;70.52;102242.41;4943756;28;102745;-55
2022/11/27 19:13:57;;;;;;;53.15;50.05;;;;;;;11.97;70.19;102253.31;4950900;28;102097;-54
2022/11/27 19:16:27;;;;;;;55.60;52.40;;;;;;;11.98;70.28;102252.28;4939450;28;102143;-54
2022/11/27 19:18:55;;;;;;;55.47;52.28;;;;;;;11.98;70.70;102260.47;4947739;28;104148;-54
2022/11/27 19:21:24;;;;;;;51.05;48.13;;;;;;;11.97;70.40;102253.31;4937038;28;102385;-55
2022/11/27 19:23:51;;;;;;;51.47;48.53;;;;;;;11.97;70.23;102247.88;4936072;28;101900;-54
2022/11/27 19:26:20;;;;;;;51.17;48.30;;;;;;;11.98;70.50;102255.00;4951581;28;102357;-54
2022/11/27 19:28:47;;;;;;;48.88;46.17;;;;;;;11.96;70.30;102254.41;4943660;28;103934;-54
2022/11/27 19:31:15;;;;;;;51.55;48.67;;;;;;;11.96;70.84;102262.59;4946817;28;102047;-54
2022/11/27 19:33:43;;;;;;;53.40;50.38;;;;;;;11.94;70.27;102257.38;4940462;28;102176;-54
2022/11/27 19:36:12;;;;;;;50.83;47.97;;;;;;;11.94;70.38;102260.13;4946946;28;102818;-54
2022/11/27 19:38:40;;;;;;;50.45;47.58;;;;;;;11.97;70.39;102264.22;4948832;28;104088;-55
2022/11/27 19:41:08;;;;;;;48.67;45.93;;;;;;;11.96;70.47;102262.59;4940802;28;102792;-54
2022/11/27 19:43:34;;;;;;;46.17;43.55;;;;;;;11.96;70.49;102270.78;4934396;28;102659;-54
2022/11/27 19:46:01;;;;;;;48.70;46.03;;;;;;;11.98;70.33;102271.38;4940063;28;102537;-54
